Warning: Javascript must be enabled to use all the features on this page!


Page Loading - Please Wait...

Click to hideNews Bulletins

Peak Streamflow for the Nation

USGS 10336610 UPPER TRUCKEE RV AT SOUTH LAKE TAHOE, CA

El Dorado County, California
Hydrologic Unit Code 16050101
Latitude  38°55'21", Longitude 119°59'26" NAD27
Drainage area 54.9  square miles
Gage datum 6,229.04 feet above NGVD29
Output formats
Table
Graph
Tab-separated file
peakfq (watstore) format
Reselect output format
Water
Year
Date Gage
Height
(feet)
Stream-
flow
(cfs)
1972 1972-06-01 4.10 518
1973 1973-05-19 5.28 754
1974 1973-11-12 5.94 1,070
1978 1978-06-14 4.36 610O
1980 1980-05-22 4.78 697
1981 1981-05-01 3.31 352
1982 1982-02-16 8.12 2,550
1983 1983-05-30 5.94 1,300
1984 1983-11-20 6.08 1,380
1985 1985-04-15 5.25 459
1986 1986-03-08 9.08 2,740
1987 1987-05-16 5.42 533
1988 1988-05-16 3.572 170
1989 1989-03-08 6.02 595
1990 1990-04-16 4.26 236
1991 1991-05-26 4.972 402
1992 1992-04-17 4.44 284
1993 1993-05-19 6.35 729
1994 1994-04-20 3.87 240
1995 1995-05-01 7.38 1,460
1996 1996-05-16 7.97 1,780
1997 1997-01-02 9.95 5,480
1998 1998-03-24 6.89 1,480
1999 1999-05-27 6.44 1,020
2000 2000-05-08 5.56 850
2001 2001-05-16 3.77 340
2002 2002-04-15 4.53 502
2003 2003-05-29 5.31 750
2004 2004-05-28 3.63 390
2005 2005-05-16 6.88 1,180
2006 2005-12-31 8.82 2,850
2007 2007-05-11 2.93 292
2008 2008-05-19 4.11 513
2009 2009-05-03 4.77 706
2010 2010-06-08 9.116 873
2011 2011-06-29 9.74 1,270
2012 2012-04-26 7.89 678
2013 2012-12-02 8.40 745
2014 2014-02-09 7.71 596
2015 2015-02-09 7.69 598
2016 2016-03-06 7.61 612
2017 2017-02-09 13.041 2,680
2018 2018-04-07 11.33 1,970
2019 2019-06-06 8.83 889
2020 2020-05-18 7.70 592
2021 2021-05-07 5.58 204
?
  Peak Gage-Height Qualification Codes.
?
  Peak Streamflow Qualification Codes.